createdAt,value
2022-12-03T00:01:29.585Z,-2.30
2022-12-03T00:04:00.262Z,-2.20
2022-12-03T00:06:34.355Z,-2.40
2022-12-03T00:09:03.585Z,-2.50
2022-12-03T00:11:32.037Z,-2.30
2022-12-03T00:14:02.958Z,-2.40
2022-12-03T00:16:32.849Z,-2.60
2022-12-03T00:19:01.333Z,-2.10
2022-12-03T00:21:32.871Z,-2.50
2022-12-03T00:24:01.447Z,-2.50
2022-12-03T00:26:30.046Z,-1.80
2022-12-03T00:29:01.019Z,-2.50
2022-12-03T00:31:29.417Z,-2.60
2022-12-03T00:33:59.176Z,-2.40
2022-12-03T00:36:27.643Z,-2.40
2022-12-03T00:38:55.965Z,-2.50
2022-12-03T00:41:24.318Z,-2.60
2022-12-03T00:43:57.460Z,-2.40
2022-12-03T00:46:26.356Z,-2.50
2022-12-03T00:48:54.794Z,-2.50
2022-12-03T00:51:24.533Z,-2.10
2022-12-03T00:53:54.151Z,-2.30
2022-12-03T00:56:22.498Z,-2.40
2022-12-03T00:58:55.340Z,-2.50
2022-12-03T01:01:23.750Z,-2.60
2022-12-03T01:03:52.162Z,-2.10
2022-12-03T01:06:20.509Z,-2.60
2022-12-03T01:08:50.172Z,-2.60
2022-12-03T01:11:35.647Z,-2.60
2022-12-03T01:14:04.251Z,-2.60
2022-12-03T01:16:32.672Z,-2.60
2022-12-03T01:19:01.115Z,-2.10
2022-12-03T01:21:29.811Z,-2.50
2022-12-03T01:24:00.112Z,-2.50
2022-12-03T01:26:28.374Z,-2.10
2022-12-03T01:28:56.732Z,-2.40
2022-12-03T01:31:42.662Z,-2.50
2022-12-03T01:34:11.002Z,-1.50
2022-12-03T01:36:39.428Z,-1.90
2022-12-03T01:39:09.581Z,-2.40
2022-12-03T01:41:38.390Z,-2.30
2022-12-03T01:44:16.372Z,-2.40
2022-12-03T01:46:45.728Z,-2.40
2022-12-03T01:49:18.363Z,-2.40
2022-12-03T01:51:47.280Z,-2.40
2022-12-03T01:54:29.171Z,-1.90
2022-12-03T01:56:58.305Z,-2.00
2022-12-03T01:59:35.540Z,-2.40
2022-12-03T02:02:19.098Z,-2.30
2022-12-03T02:04:47.431Z,-2.40
2022-12-03T02:07:25.241Z,-1.60
2022-12-03T02:09:57.531Z,-2.40
2022-12-03T02:12:30.409Z,-2.40
2022-12-03T02:14:59.044Z,-2.20
2022-12-03T02:17:27.674Z,-2.40
2022-12-03T02:19:57.379Z,-2.40
2022-12-03T02:22:34.254Z,-2.50
2022-12-03T02:25:14.405Z,-2.50
2022-12-03T02:27:43.143Z,-2.50
2022-12-03T02:30:13.547Z,-2.40
2022-12-03T02:32:41.996Z,-2.40
2022-12-03T02:35:15.328Z,-2.00
2022-12-03T02:37:44.856Z,-1.90
2022-12-03T02:40:18.849Z,-2.30
2022-12-03T02:42:46.915Z,-2.10
2022-12-03T02:45:19.291Z,-2.20
2022-12-03T02:47:53.910Z,-2.40
2022-12-03T02:50:26.538Z,-2.40
2022-12-03T02:52:59.701Z,-2.40
2022-12-03T02:55:36.803Z,-2.40
2022-12-03T02:58:07.362Z,-2.40
2022-12-03T03:00:37.353Z,-1.80
2022-12-03T03:03:08.102Z,-2.40
2022-12-03T03:05:39.420Z,-2.40
2022-12-03T03:08:09.529Z,-2.20
2022-12-03T03:10:41.672Z,-2.40
2022-12-03T03:13:12.675Z,-2.40
2022-12-03T03:15:42.094Z,-2.40
2022-12-03T03:18:11.882Z,-2.40
2022-12-03T03:20:41.024Z,-2.10
2022-12-03T03:23:15.932Z,-2.10
2022-12-03T03:25:48.285Z,-2.30
2022-12-03T03:28:18.037Z,-2.30
2022-12-03T03:30:46.625Z,-1.70
2022-12-03T03:33:16.734Z,-1.90
2022-12-03T03:35:46.476Z,-2.30
2022-12-03T03:38:15.326Z,-2.30
2022-12-03T03:40:45.566Z,-2.40
2022-12-03T03:43:14.206Z,-2.10
2022-12-03T03:45:43.338Z,-2.30
2022-12-03T03:48:12.388Z,-2.30
2022-12-03T03:50:41.009Z,-2.30
2022-12-03T03:53:09.503Z,-2.30
2022-12-03T03:55:37.781Z,-2.30
2022-12-03T03:58:07.796Z,-2.30
2022-12-03T04:00:37.549Z,-2.30
2022-12-03T04:03:06.861Z,-2.00
2022-12-03T04:05:35.341Z,-2.30
2022-12-03T04:08:03.698Z,-2.30
2022-12-03T04:10:49.299Z,-2.00
2022-12-03T04:13:19.246Z,-2.40
2022-12-03T04:15:47.687Z,-2.20
2022-12-03T04:18:34.245Z,-2.40
2022-12-03T04:21:16.367Z,-2.40
2022-12-03T04:23:44.925Z,-2.30
2022-12-03T04:26:30.526Z,-3.00
2022-12-03T04:29:01.638Z,-2.20
2022-12-03T04:31:47.607Z,-2.40
2022-12-03T04:34:33.107Z,-1.80
2022-12-03T04:37:01.393Z,-2.00
2022-12-03T04:39:29.656Z,-2.20
2022-12-03T04:41:57.895Z,-2.00
2022-12-03T04:44:39.417Z,-1.90
2022-12-03T04:47:10.427Z,-2.40
2022-12-03T04:49:40.734Z,-2.30
2022-12-03T04:52:17.157Z,-1.90
2022-12-03T04:54:45.588Z,-2.20
2022-12-03T04:57:14.065Z,-2.30
2022-12-03T04:59:44.222Z,-2.30
2022-12-03T05:02:12.593Z,-2.10
2022-12-03T05:04:41.081Z,-2.40
2022-12-03T05:07:09.702Z,-1.80
2022-12-03T05:09:38.249Z,-2.30
2022-12-03T05:12:11.340Z,-1.90
2022-12-03T05:14:39.914Z,-2.30
2022-12-03T05:17:09.600Z,-2.20
2022-12-03T05:19:55.174Z,-2.30
2022-12-03T05:22:23.545Z,-2.20
2022-12-03T05:24:52.445Z,-2.30
2022-12-03T05:27:23.850Z,-2.00
2022-12-03T05:29:52.944Z,-2.30
2022-12-03T05:32:22.692Z,-2.20
2022-12-03T05:34:51.523Z,-1.80
2022-12-03T05:37:20.075Z,-1.40
2022-12-03T05:39:48.527Z,-2.30
2022-12-03T05:42:34.060Z,-2.00
2022-12-03T05:45:02.973Z,-2.10
2022-12-03T05:47:32.655Z,-2.30
2022-12-03T05:50:00.950Z,-2.30
2022-12-03T05:52:33.448Z,-2.30
2022-12-03T05:55:01.722Z,-1.80
2022-12-03T05:57:30.470Z,-1.80
2022-12-03T05:59:58.712Z,-2.10
2022-12-03T06:02:27.162Z,-2.20
2022-12-03T06:04:56.988Z,-2.10
2022-12-03T06:07:25.389Z,-1.40
2022-12-03T06:09:54.086Z,-2.20
2022-12-03T06:12:22.382Z,-2.20
2022-12-03T06:14:52.804Z,-2.20
2022-12-03T06:17:21.432Z,-2.10
2022-12-03T06:19:49.940Z,-1.80
2022-12-03T06:22:22.053Z,-1.90
2022-12-03T06:24:50.535Z,-2.00
2022-12-03T06:27:19.138Z,-2.10
2022-12-03T06:29:47.391Z,-2.30
2022-12-03T06:32:15.659Z,-2.10
2022-12-03T06:34:44.129Z,-2.30
2022-12-03T06:37:12.413Z,-2.10
2022-12-03T06:39:42.114Z,-1.90
2022-12-03T06:42:10.337Z,-1.60
2022-12-03T06:44:38.680Z,-2.10
2022-12-03T06:47:06.980Z,-1.90
2022-12-03T06:49:35.726Z,-1.30
2022-12-03T06:52:04.059Z,-2.00
2022-12-03T06:54:32.359Z,-1.90
2022-12-03T06:57:02.035Z,-0.70
2022-12-03T06:59:34.099Z,-2.00
2022-12-03T07:02:02.410Z,-2.00
2022-12-03T07:04:30.928Z,-1.90
2022-12-03T07:06:59.117Z,-2.00
2022-12-03T07:09:27.441Z,-1.40
2022-12-03T07:11:55.733Z,-1.90
2022-12-03T07:14:25.540Z,-1.90
2022-12-03T07:16:54.443Z,-1.40
2022-12-03T07:19:26.318Z,-1.80
2022-12-03T07:21:57.473Z,-1.70
2022-12-03T07:24:25.770Z,-1.50
2022-12-03T07:26:54.033Z,-1.40
2022-12-03T07:29:22.577Z,-1.80
2022-12-03T07:31:52.361Z,-1.90
2022-12-03T07:34:21.654Z,-1.80
2022-12-03T07:36:50.072Z,-1.80
2022-12-03T07:39:26.558Z,-1.80
2022-12-03T07:41:54.846Z,-0.90
2022-12-03T07:44:23.308Z,-1.30
2022-12-03T07:46:53.249Z,-1.80
2022-12-03T07:49:21.547Z,-0.60
2022-12-03T07:51:54.259Z,-1.80
2022-12-03T07:54:23.028Z,-1.30
2022-12-03T07:56:55.437Z,-1.70
2022-12-03T07:59:26.440Z,-1.70
2022-12-03T08:01:56.157Z,-1.70
2022-12-03T08:04:24.477Z,-1.50
2022-12-03T08:06:53.917Z,-1.70
2022-12-03T08:09:22.555Z,-1.70
2022-12-03T08:11:51.361Z,-1.50
2022-12-03T08:14:21.261Z,-1.70
2022-12-03T08:16:50.091Z,-1.60
2022-12-03T08:19:19.817Z,-1.70
2022-12-03T08:21:48.050Z,-1.70
2022-12-03T08:24:18.475Z,-1.70
2022-12-03T08:26:48.657Z,-1.70
2022-12-03T08:29:19.589Z,-1.70
2022-12-03T08:31:52.158Z,-1.70
2022-12-03T08:34:23.515Z,-1.60
2022-12-03T08:36:54.072Z,-1.60
2022-12-03T08:39:42.385Z,-1.50
2022-12-03T08:42:34.688Z,-1.50
2022-12-03T08:45:35.394Z,-1.60
2022-12-03T08:48:07.245Z,-1.60
2022-12-03T08:50:41.059Z,-1.30
2022-12-03T08:53:24.553Z,-1.50
2022-12-03T08:55:54.454Z,-1.50
2022-12-03T08:58:27.544Z,-1.60
2022-12-03T09:00:59.651Z,-1.40
2022-12-03T09:03:32.016Z,-1.60
2022-12-03T09:06:01.920Z,-1.50
2022-12-03T09:08:32.356Z,-1.50
2022-12-03T09:11:01.341Z,-1.20
2022-12-03T09:13:29.608Z,-1.50
2022-12-03T09:15:58.735Z,-1.40
2022-12-03T09:18:27.386Z,-1.40
2022-12-03T09:20:56.486Z,-1.30
2022-12-03T09:23:26.205Z,-1.40
2022-12-03T09:25:54.427Z,-1.30
2022-12-03T09:28:22.685Z,-1.30
2022-12-03T09:30:51.324Z,-1.20
2022-12-03T09:33:19.570Z,-1.20
2022-12-03T09:35:47.956Z,-1.20
2022-12-03T09:38:16.294Z,-1.10
2022-12-03T09:40:45.954Z,-1.20
2022-12-03T09:43:14.302Z,-1.20
2022-12-03T09:45:42.721Z,-0.70
2022-12-03T09:48:12.111Z,-1.10
2022-12-03T09:50:42.742Z,-0.40
2022-12-03T09:53:15.909Z,-1.00
2022-12-03T09:55:48.203Z,-1.10
2022-12-03T09:58:19.218Z,-0.60
2022-12-03T10:00:50.321Z,-1.10
2022-12-03T10:03:28.182Z,-1.00
2022-12-03T10:05:58.979Z,-1.00
2022-12-03T10:08:32.171Z,-1.00
2022-12-03T10:11:02.437Z,-1.00
2022-12-03T10:13:42.037Z,-0.90
2022-12-03T10:16:12.212Z,-0.90
2022-12-03T10:18:44.035Z,-0.90
2022-12-03T10:21:20.318Z,-0.50
2022-12-03T10:23:55.182Z,-0.70
2022-12-03T10:26:40.091Z,-0.70
2022-12-03T10:29:14.349Z,-0.60
2022-12-03T10:31:42.724Z,0.00
2022-12-03T10:34:11.602Z,-0.40
2022-12-03T10:36:40.502Z,-0.30
2022-12-03T10:39:12.829Z,-0.30
2022-12-03T10:42:14.671Z,-0.20
2022-12-03T10:44:43.028Z,-0.20
2022-12-03T10:47:25.884Z,-0.20
2022-12-03T10:50:04.635Z,-0.20
2022-12-03T10:52:33.440Z,-0.40
2022-12-03T10:55:01.893Z,-0.40
2022-12-03T10:57:45.305Z,-0.30
2022-12-03T11:00:17.951Z,-0.50
2022-12-03T11:02:51.725Z,-0.50
2022-12-03T11:05:28.156Z,-0.50
2022-12-03T11:07:57.214Z,-0.50
2022-12-03T11:10:25.864Z,-0.10
2022-12-03T11:13:30.429Z,-0.50
2022-12-03T11:15:59.141Z,-0.50
2022-12-03T11:18:59.425Z,-0.50
2022-12-03T11:21:27.765Z,-0.40
2022-12-03T11:24:29.222Z,-0.30
2022-12-03T11:27:24.567Z,-0.40
2022-12-03T11:30:03.775Z,-0.40
2022-12-03T11:33:06.317Z,-0.30
2022-12-03T11:36:36.489Z,-0.30
2022-12-03T11:39:09.979Z,-0.30
2022-12-03T11:41:38.280Z,-0.30
2022-12-03T11:44:29.515Z,-0.30
2022-12-03T11:47:02.337Z,-0.30
2022-12-03T11:49:38.299Z,-0.30
2022-12-03T11:52:23.432Z,-0.30
2022-12-03T11:54:59.848Z,-0.30
2022-12-03T11:57:32.860Z,-0.30
2022-12-03T12:00:04.647Z,-0.30
2022-12-03T12:02:41.569Z,-0.30
2022-12-03T12:05:28.949Z,-0.20
2022-12-03T12:07:59.777Z,0.10
2022-12-03T12:10:44.405Z,-0.20
2022-12-03T12:13:45.790Z,-0.20
2022-12-03T12:16:14.401Z,-0.10
2022-12-03T12:18:46.658Z,-0.10
2022-12-03T12:21:41.284Z,0.00
2022-12-03T12:24:32.276Z,0.00
2022-12-03T12:27:02.374Z,0.00
2022-12-03T12:29:30.746Z,0.00
2022-12-03T12:32:02.409Z,0.00
2022-12-03T12:34:33.150Z,0.00
2022-12-03T12:37:04.305Z,0.00
2022-12-03T12:39:32.872Z,0.00
2022-12-03T12:42:04.513Z,0.10
2022-12-03T12:44:32.774Z,0.00
2022-12-03T12:47:11.846Z,0.00
2022-12-03T12:53:17.973Z,0.10
2022-12-03T12:55:46.403Z,0.00
2022-12-03T12:58:19.147Z,0.20
2022-12-03T13:00:52.100Z,0.20
2022-12-03T13:03:22.590Z,0.20
2022-12-03T13:05:53.765Z,0.30
2022-12-03T13:08:29.153Z,0.20
2022-12-03T13:10:59.203Z,0.30
2022-12-03T13:13:41.644Z,0.10
2022-12-03T13:16:18.717Z,0.20
2022-12-03T13:18:50.641Z,0.10
2022-12-03T13:21:30.708Z,0.10
2022-12-03T13:24:01.956Z,0.10
2022-12-03T13:26:39.520Z,0.30
2022-12-03T13:29:14.895Z,0.20
2022-12-03T13:31:50.897Z,0.30
2022-12-03T13:34:22.626Z,0.00
2022-12-03T13:36:58.876Z,0.20
2022-12-03T13:39:35.167Z,0.10
2022-12-03T13:42:34.625Z,0.30
2022-12-03T13:45:07.819Z,0.20
2022-12-03T13:47:36.268Z,0.20
2022-12-03T13:50:23.807Z,0.60
2022-12-03T13:52:53.049Z,0.20
2022-12-03T13:55:27.664Z,0.30
2022-12-03T13:57:56.207Z,0.20
2022-12-03T14:00:24.950Z,0.10
2022-12-03T14:02:59.911Z,0.20
2022-12-03T14:05:29.050Z,0.50
2022-12-03T14:08:09.056Z,0.20
2022-12-03T14:10:38.843Z,0.20
2022-12-03T14:13:07.534Z,0.30
2022-12-03T14:15:35.946Z,0.10
2022-12-03T14:18:04.730Z,0.20
2022-12-03T14:20:34.769Z,0.20
2022-12-03T14:23:04.902Z,0.20
2022-12-03T14:25:44.022Z,0.20
2022-12-03T14:31:26.138Z,0.40
2022-12-03T14:33:54.713Z,0.30
2022-12-03T14:36:23.416Z,0.30
2022-12-03T14:38:55.112Z,0.20
2022-12-03T14:41:42.807Z,0.10
2022-12-03T14:44:21.955Z,0.40
2022-12-03T14:47:04.842Z,0.20
2022-12-03T14:49:33.198Z,0.20
2022-12-03T14:52:02.174Z,0.20
2022-12-03T14:54:30.643Z,0.20
2022-12-03T14:57:00.561Z,0.20
2022-12-03T14:59:29.132Z,0.20
2022-12-03T15:01:57.723Z,0.10
2022-12-03T15:04:26.372Z,0.40
2022-12-03T15:06:54.891Z,0.30
2022-12-03T15:09:23.335Z,0.20
2022-12-03T15:11:53.626Z,0.40
2022-12-03T15:14:25.161Z,0.20
2022-12-03T15:16:53.575Z,0.20
2022-12-03T15:19:22.046Z,0.20
2022-12-03T15:21:53.393Z,0.10
2022-12-03T15:24:44.845Z,0.20
2022-12-03T15:27:13.196Z,0.20
2022-12-03T15:29:43.306Z,0.20
2022-12-03T15:32:11.952Z,0.20
2022-12-03T15:34:40.448Z,0.60
2022-12-03T15:37:13.284Z,0.30
2022-12-03T15:39:48.403Z,0.20
2022-12-03T15:42:17.547Z,0.20
2022-12-03T15:45:30.929Z,0.30
2022-12-03T15:48:57.626Z,0.20
2022-12-03T15:51:26.417Z,0.40
2022-12-03T15:53:54.843Z,0.20
2022-12-03T15:56:23.668Z,0.60
2022-12-03T15:58:55.143Z,0.20
2022-12-03T16:01:23.600Z,0.50
2022-12-03T16:03:53.850Z,0.30
2022-12-03T16:06:22.185Z,0.30
2022-12-03T16:08:53.703Z,0.20
2022-12-03T16:11:25.369Z,0.20
2022-12-03T16:13:53.726Z,0.50
2022-12-03T16:16:22.271Z,0.30
2022-12-03T16:18:54.932Z,0.30
2022-12-03T16:21:27.120Z,0.30
2022-12-03T16:24:11.323Z,0.40
2022-12-03T16:26:39.692Z,0.30
2022-12-03T16:29:09.528Z,0.30
2022-12-03T16:31:37.915Z,0.60
2022-12-03T16:34:14.045Z,0.30
2022-12-03T16:36:42.510Z,0.30
2022-12-03T16:39:10.807Z,0.50
2022-12-03T16:41:39.313Z,0.30
2022-12-03T16:44:07.963Z,0.20
2022-12-03T16:46:38.409Z,0.30
2022-12-03T16:49:08.282Z,0.50
2022-12-03T16:51:38.437Z,0.30
2022-12-03T16:54:08.266Z,0.30
2022-12-03T16:56:37.385Z,0.30
2022-12-03T16:59:05.985Z,0.30
2022-12-03T17:01:34.542Z,0.30
2022-12-03T17:04:07.951Z,0.30
2022-12-03T17:06:44.383Z,0.30
2022-12-03T17:09:13.023Z,0.60
2022-12-03T17:11:41.950Z,0.30
2022-12-03T17:14:10.779Z,0.30
2022-12-03T17:16:39.323Z,0.40
2022-12-03T17:19:09.368Z,0.30
2022-12-03T17:21:37.819Z,0.40
2022-12-03T17:24:25.558Z,0.50
2022-12-03T17:26:56.801Z,0.30
2022-12-03T17:29:25.363Z,0.40
2022-12-03T17:31:56.261Z,0.50
2022-12-03T17:34:25.022Z,1.40
2022-12-03T17:36:57.236Z,0.40
2022-12-03T17:39:27.130Z,0.40
2022-12-03T17:41:56.197Z,0.60
2022-12-03T17:44:27.378Z,0.60
2022-12-03T17:46:56.822Z,0.70
2022-12-03T17:49:31.128Z,0.50
2022-12-03T17:52:00.404Z,0.60
2022-12-03T17:54:49.356Z,0.80
2022-12-03T17:57:19.463Z,0.40
2022-12-03T17:59:48.112Z,0.50
2022-12-03T18:02:17.048Z,0.50
2022-12-03T18:05:05.773Z,0.50
2022-12-03T18:08:05.751Z,0.50
2022-12-03T18:14:35.692Z,0.50
2022-12-03T18:16:43.234Z,0.70
2022-12-03T18:19:25.629Z,0.50
2022-12-03T18:21:54.849Z,0.70
2022-12-03T18:24:26.833Z,0.50
2022-12-03T18:30:22.897Z,0.90
2022-12-03T18:32:51.375Z,0.90
2022-12-03T18:35:20.785Z,0.60
2022-12-03T18:37:59.117Z,0.60
2022-12-03T18:40:28.142Z,0.50
2022-12-03T18:42:57.900Z,0.90
2022-12-03T18:45:29.350Z,0.60
2022-12-03T18:48:00.904Z,0.80
2022-12-03T18:50:29.352Z,0.50
2022-12-03T18:52:58.013Z,0.60
2022-12-03T18:55:30.827Z,0.60
2022-12-03T18:57:59.341Z,0.60
2022-12-03T19:00:33.293Z,0.70
2022-12-03T19:03:03.547Z,0.60
2022-12-03T19:05:36.362Z,0.70
2022-12-03T19:08:12.682Z,0.60
2022-12-03T19:10:41.643Z,0.70
2022-12-03T19:13:10.226Z,0.70
2022-12-03T19:15:40.960Z,0.70
2022-12-03T19:18:09.639Z,0.60
2022-12-03T19:20:46.035Z,0.70
2022-12-03T19:23:14.517Z,0.70
2022-12-03T19:25:43.130Z,0.80
2022-12-03T19:28:14.031Z,0.90
2022-12-03T19:30:44.452Z,0.70
2022-12-03T19:33:21.484Z,0.70
2022-12-03T19:35:52.434Z,0.70
2022-12-03T19:38:23.961Z,0.80
2022-12-03T19:41:16.360Z,0.70
2022-12-03T19:43:53.136Z,0.80
2022-12-03T19:46:57.805Z,1.40
2022-12-03T19:49:27.272Z,1.60
2022-12-03T19:51:57.171Z,0.80
2022-12-03T19:54:25.833Z,0.90
2022-12-03T19:56:58.918Z,0.80
2022-12-03T19:59:27.589Z,0.80
2022-12-03T20:02:26.344Z,0.80
2022-12-03T20:04:59.361Z,0.80
2022-12-03T20:07:28.693Z,0.70
2022-12-03T20:09:58.600Z,0.80
2022-12-03T20:12:49.429Z,0.80
2022-12-03T20:15:22.160Z,0.80
2022-12-03T20:17:50.808Z,0.80
2022-12-03T20:20:58.133Z,0.80
2022-12-03T20:23:59.715Z,0.80
2022-12-03T20:26:29.519Z,0.90
2022-12-03T20:29:00.114Z,0.80
2022-12-03T20:31:31.584Z,0.80
2022-12-03T20:34:40.495Z,0.80
2022-12-03T20:37:09.258Z,0.80
2022-12-03T20:39:39.174Z,0.80
2022-12-03T20:42:23.974Z,0.90
2022-12-03T20:44:57.749Z,0.80
2022-12-03T20:47:39.795Z,0.80
2022-12-03T20:50:09.845Z,0.90
2022-12-03T20:52:38.404Z,0.90
2022-12-03T20:55:13.663Z,0.90
2022-12-03T20:57:42.130Z,1.00
2022-12-03T21:00:11.388Z,0.90
2022-12-03T21:02:39.957Z,0.90
2022-12-03T21:05:12.108Z,0.90
2022-12-03T21:07:47.317Z,0.90
2022-12-03T21:10:31.162Z,1.10
2022-12-03T21:13:29.237Z,0.90
2022-12-03T21:16:08.093Z,0.80
2022-12-03T21:18:38.469Z,0.90
2022-12-03T21:21:12.630Z,0.90
2022-12-03T21:23:55.405Z,0.80
2022-12-03T21:26:30.601Z,0.90
2022-12-03T21:29:00.411Z,0.90
2022-12-03T21:31:40.134Z,0.90
2022-12-03T21:34:08.980Z,0.90
2022-12-03T21:36:37.516Z,0.90
2022-12-03T21:39:06.677Z,0.90
2022-12-03T21:41:39.581Z,0.90
2022-12-03T21:44:14.234Z,0.90
2022-12-03T21:47:16.649Z,1.10
2022-12-03T21:49:47.770Z,1.50
2022-12-03T21:52:16.256Z,1.00
2022-12-03T21:54:44.600Z,0.90
2022-12-03T21:57:17.291Z,1.20
2022-12-03T21:59:45.968Z,0.90
2022-12-03T22:02:20.627Z,1.10
2022-12-03T22:04:52.554Z,1.00
2022-12-03T22:07:23.970Z,0.90
2022-12-03T22:09:57.824Z,0.90
2022-12-03T22:12:46.706Z,0.90
2022-12-03T22:15:18.723Z,1.10
2022-12-03T22:17:51.613Z,0.90
2022-12-03T22:20:20.425Z,0.90
2022-12-03T22:22:49.107Z,0.90
2022-12-03T22:25:17.814Z,1.00
2022-12-03T22:27:48.234Z,0.90
2022-12-03T22:30:18.446Z,0.90
2022-12-03T22:32:47.289Z,0.90
2022-12-03T22:35:15.795Z,1.10
2022-12-03T22:37:49.717Z,1.00
2022-12-03T22:40:24.089Z,0.90
2022-12-03T22:43:09.117Z,0.90
2022-12-03T22:45:37.643Z,1.10
2022-12-03T22:48:11.279Z,1.10
2022-12-03T22:50:44.794Z,1.00
2022-12-03T22:53:16.404Z,0.90
2022-12-03T22:55:48.378Z,0.90
2022-12-03T22:58:46.374Z,1.10
2022-12-03T23:01:25.104Z,1.00
2022-12-03T23:03:53.555Z,0.90
2022-12-03T23:06:35.320Z,0.80
2022-12-03T23:09:08.335Z,0.90
2022-12-03T23:11:41.361Z,0.90
2022-12-03T23:14:14.140Z,1.00
2022-12-03T23:16:44.149Z,0.90
2022-12-03T23:19:13.147Z,1.10
2022-12-03T23:21:55.558Z,0.90
2022-12-03T23:24:26.010Z,0.90
2022-12-03T23:27:02.023Z,0.90
2022-12-03T23:29:30.564Z,0.90
2022-12-03T23:32:08.809Z,0.90
2022-12-03T23:34:47.266Z,1.20
2022-12-03T23:37:17.159Z,0.90
2022-12-03T23:39:45.782Z,0.90
2022-12-03T23:42:16.273Z,0.80
2022-12-03T23:44:45.034Z,0.90
2022-12-03T23:47:21.137Z,1.00
2022-12-03T23:49:53.944Z,1.00
2022-12-03T23:52:25.796Z,0.80
2022-12-03T23:54:54.100Z,0.90
2022-12-03T23:57:22.506Z,0.90
2022-12-03T23:59:52.578Z,0.90
